Jolly Acres, South Dakota
Current Conditions -  °F | °C
As of 6:52 AM on Friday 31 Oct 2014 (Local Time) from KRAP Reporting Station
Haze Haze  
Wind Chill: -8°   Ceiling: 200
Heat Index: -1°   Visibility: 4mi
Dew Point: -2°   Wind: 18mph
Humidity: 96%   Direction: 160°SSE
Pressure: 30.38"   Gusts: NA
Location:  44.0731°N, 103.205°W
Report Text: KRAP 311252Z 16016KT 4SM BR OVC002 M01/M02 A3038 RMK AO2 SLP321 T10111017
Loading
Personal Weather Stations






























Interactive Weather Map
Tropical Storm Tracking
New forecast layout! Learn more

10-Day Weather Forecast

Advertisements
Track Severe Weather on mobile